createdAt,value
2022-12-03T00:00:56.545Z,18.6
2022-12-03T00:05:50.471Z,18.5
2022-12-03T00:10:45.072Z,18.6
2022-12-03T00:15:39.701Z,18.5
2022-12-03T00:20:34.372Z,18.4
2022-12-03T00:25:28.967Z,18.5
2022-12-03T00:30:24.068Z,18.4
2022-12-03T00:35:18.601Z,18.4
2022-12-03T00:40:13.136Z,18.3
2022-12-03T00:45:07.693Z,18.2
2022-12-03T00:50:02.222Z,18.3
2022-12-03T00:54:57.022Z,18.2
2022-12-03T00:59:51.525Z,18.3
2022-12-03T01:04:46.477Z,18.2
2022-12-03T01:09:41.158Z,18.1
2022-12-03T01:14:35.998Z,18
2022-12-03T01:19:30.546Z,17.9
2022-12-03T01:24:25.227Z,17.9
2022-12-03T01:29:20.006Z,17.9
2022-12-03T01:34:14.746Z,17.8
2022-12-03T01:39:09.245Z,17.8
2022-12-03T01:44:03.859Z,17.8
2022-12-03T01:48:58.509Z,17.7
2022-12-03T01:53:52.483Z,17.7
2022-12-03T01:58:47.346Z,17.6
2022-12-03T02:03:42.277Z,17.7
2022-12-03T02:08:37.039Z,17.7
2022-12-03T02:13:31.874Z,17.6
2022-12-03T02:18:26.534Z,17.5
2022-12-03T02:23:21.438Z,17.5
2022-12-03T02:28:16.295Z,17.6
2022-12-03T02:33:11.004Z,17.5
2022-12-03T02:38:05.579Z,17.4
2022-12-03T02:42:59.614Z,17.4
2022-12-03T02:47:54.438Z,17.3
2022-12-03T02:52:49.043Z,17.3
2022-12-03T02:57:43.702Z,17.4
2022-12-03T03:02:37.861Z,17.3
2022-12-03T03:07:32.485Z,17.3
2022-12-03T03:12:27.490Z,17.3
2022-12-03T03:17:22.338Z,17.3
2022-12-03T03:22:16.963Z,17.3
2022-12-03T03:27:11.607Z,17.3
2022-12-03T03:32:06.143Z,17.3
2022-12-03T03:37:00.606Z,17.1
2022-12-03T03:41:55.394Z,17.1
2022-12-03T03:46:49.876Z,17.1
2022-12-03T03:51:44.341Z,17.1
2022-12-03T03:56:39.092Z,17.1
2022-12-03T04:01:33.780Z,17.1
2022-12-03T04:06:28.128Z,17.1
2022-12-03T04:11:22.702Z,17.1
2022-12-03T04:16:17.210Z,17.1
2022-12-03T04:21:11.658Z,17.1
2022-12-03T04:26:06.519Z,17
2022-12-03T04:31:00.412Z,17
2022-12-03T04:35:55.031Z,17.1
2022-12-03T04:40:49.586Z,17
2022-12-03T04:45:43.950Z,16.9
2022-12-03T04:50:38.640Z,16.9
2022-12-03T04:55:33.304Z,16.9
2022-12-03T05:00:27.935Z,16.9
2022-12-03T05:05:22.601Z,16.8
2022-12-03T05:10:17.526Z,16.9
2022-12-03T05:15:12.221Z,17
2022-12-03T05:20:07.468Z,17.2
2022-12-03T05:25:02.422Z,17.5
2022-12-03T05:29:57.133Z,17.7
2022-12-03T05:34:52.261Z,18.3
2022-12-03T05:39:47.148Z,18.8
2022-12-03T05:44:42.537Z,19.2
2022-12-03T05:49:37.736Z,19.6
2022-12-03T05:54:33.131Z,20.1
2022-12-03T05:59:28.171Z,20.3
2022-12-03T06:04:22.785Z,19.8
2022-12-03T06:09:17.948Z,19.9
2022-12-03T06:14:12.924Z,20
2022-12-03T06:19:07.953Z,20.3
2022-12-03T06:24:02.366Z,20.4
2022-12-03T06:28:57.284Z,20.8
2022-12-03T06:33:52.044Z,20.7
2022-12-03T06:38:46.903Z,20.8
2022-12-03T06:43:41.960Z,20.9
2022-12-03T06:48:36.550Z,20.4
2022-12-03T06:53:31.201Z,20.1
2022-12-03T06:58:25.692Z,20.4
2022-12-03T07:03:20.617Z,20.8
2022-12-03T07:08:15.477Z,20.7
2022-12-03T07:13:10.003Z,20.7
2022-12-03T07:18:04.771Z,20.7
2022-12-03T07:22:58.654Z,19.3
2022-12-03T07:27:52.503Z,18
2022-12-03T07:32:46.566Z,17.1
2022-12-03T07:37:41.297Z,16.8
2022-12-03T07:42:35.884Z,16.7
2022-12-03T07:47:30.710Z,16.7
2022-12-03T07:52:25.551Z,16.8
2022-12-03T07:57:19.733Z,14.7
2022-12-03T08:02:14.740Z,14.8
2022-12-03T08:07:09.952Z,18.2
2022-12-03T08:12:05.111Z,19.3
2022-12-03T08:17:00.152Z,19.8
2022-12-03T08:21:59.650Z,20.1
2022-12-03T08:26:50.085Z,20.3
2022-12-03T08:31:43.109Z,17.9
2022-12-03T08:36:38.642Z,19.1
2022-12-03T08:41:33.162Z,19.7
2022-12-03T08:46:28.116Z,19.8
2022-12-03T08:51:22.969Z,19.8
2022-12-03T08:56:16.984Z,19.8
2022-12-03T09:01:11.302Z,19.8
2022-12-03T09:06:06.130Z,19.8
2022-12-03T09:11:00.900Z,19.7
2022-12-03T09:15:55.565Z,19.7
2022-12-03T09:20:50.301Z,19.6
2022-12-03T09:25:45.004Z,19.5
2022-12-03T09:30:39.586Z,19.5
2022-12-03T09:35:33.708Z,19.4
2022-12-03T09:40:28.334Z,19.3
2022-12-03T09:45:23.200Z,19.2
2022-12-03T09:50:17.966Z,19.1
2022-12-03T09:55:12.707Z,19
2022-12-03T10:00:06.902Z,18.9
2022-12-03T10:05:02.076Z,19
2022-12-03T10:09:57.044Z,18.7
2022-12-03T10:14:50.888Z,18.7
2022-12-03T10:19:45.788Z,18.6
2022-12-03T10:24:40.624Z,18.5
2022-12-03T10:29:35.200Z,18.4
2022-12-03T10:34:29.995Z,18.4
2022-12-03T10:39:24.440Z,18.3
2022-12-03T10:44:19.168Z,18.3
2022-12-03T10:49:13.650Z,18.1
2022-12-03T10:54:08.078Z,18.1
2022-12-03T10:59:02.806Z,18
2022-12-03T11:03:57.673Z,17.8
2022-12-03T11:08:57.039Z,17.9
2022-12-03T11:13:47.152Z,17.7
2022-12-03T11:18:41.803Z,17.6
2022-12-03T11:23:35.605Z,17.5
2022-12-03T11:28:29.948Z,17.5
2022-12-03T11:33:23.976Z,17.4
2022-12-03T11:38:18.786Z,17.3
2022-12-03T11:43:12.692Z,17.4
2022-12-03T11:48:07.623Z,17.2
2022-12-03T11:53:02.195Z,17.3
2022-12-03T11:57:56.886Z,17.1
2022-12-03T12:02:51.573Z,17.1
2022-12-03T12:07:46.056Z,17.1
2022-12-03T12:12:40.393Z,17
2022-12-03T12:17:35.050Z,16.9
2022-12-03T12:22:29.515Z,17
2022-12-03T12:27:24.216Z,16.8
2022-12-03T12:32:18.878Z,16.9
2022-12-03T12:37:12.560Z,16.9
2022-12-03T12:42:07.196Z,16.7
2022-12-03T12:47:01.789Z,16.7
2022-12-03T12:51:56.483Z,16.7
2022-12-03T12:56:51.055Z,16.7
2022-12-03T13:01:45.790Z,16.7
2022-12-03T13:06:40.336Z,16.6
2022-12-03T13:11:35.159Z,16.7
2022-12-03T13:16:29.121Z,16.5
2022-12-03T13:21:23.623Z,16.6
2022-12-03T13:26:29.419Z,16.5
2022-12-03T13:31:12.024Z,16.5
2022-12-03T13:36:06.605Z,16.4
2022-12-03T13:41:00.757Z,16.4
2022-12-03T13:45:55.648Z,16.4
2022-12-03T13:50:50.229Z,16.5
2022-12-03T13:55:44.819Z,16.7
2022-12-03T14:00:39.337Z,17
2022-12-03T14:05:34.157Z,17.3
2022-12-03T14:10:29.139Z,17.4
2022-12-03T14:15:24.383Z,17.8
2022-12-03T14:20:19.536Z,18.3
2022-12-03T14:25:14.519Z,18.5
2022-12-03T14:30:09.543Z,18.6
2022-12-03T14:35:09.618Z,18.7
2022-12-03T14:39:58.971Z,19
2022-12-03T14:44:53.497Z,19.1
2022-12-03T14:49:48.342Z,19.1
2022-12-03T14:54:43.056Z,19
2022-12-03T14:59:37.866Z,19
2022-12-03T15:04:32.565Z,18.9
2022-12-03T15:09:27.374Z,19.1
2022-12-03T15:14:22.255Z,18.9
2022-12-03T15:19:17.076Z,18.8
2022-12-03T15:24:11.898Z,18.8
2022-12-03T15:29:06.791Z,18.7
2022-12-03T15:34:01.556Z,18.6
2022-12-03T15:38:56.279Z,18.4
2022-12-03T15:43:51.108Z,18.4
2022-12-03T15:48:45.566Z,18.3
2022-12-03T15:53:39.980Z,18.2
2022-12-03T15:58:34.923Z,18.3
2022-12-03T16:03:29.771Z,18.4
2022-12-03T16:08:24.582Z,18.5
2022-12-03T16:13:19.627Z,18.6
2022-12-03T16:18:14.480Z,18.8
2022-12-03T16:23:09.409Z,19
2022-12-03T16:28:03.629Z,19.3
2022-12-03T16:32:58.814Z,19.6
2022-12-03T16:37:53.244Z,19.7
2022-12-03T16:42:48.269Z,20.1
2022-12-03T16:47:43.232Z,20.4
2022-12-03T16:52:38.151Z,20.4
2022-12-03T16:57:33.965Z,20.4
2022-12-03T17:02:28.139Z,20.4
2022-12-03T17:07:23.176Z,20.4
2022-12-03T17:12:18.014Z,20.4
2022-12-03T17:17:12.716Z,20.3
2022-12-03T17:22:07.582Z,20.1
2022-12-03T17:27:02.426Z,20.1
2022-12-03T17:31:56.967Z,20
2022-12-03T17:36:51.574Z,19.9
2022-12-03T17:41:45.608Z,19.8
2022-12-03T17:46:40.546Z,19.7
2022-12-03T17:51:34.400Z,19.6
2022-12-03T17:56:29.111Z,19.5
2022-12-03T18:01:23.143Z,19.4
2022-12-03T18:06:17.576Z,19.4
2022-12-03T18:11:12.206Z,19.3
2022-12-03T18:16:06.979Z,19.3
2022-12-03T18:21:01.564Z,19.1
2022-12-03T18:25:56.372Z,19.1
2022-12-03T18:30:52.613Z,19.1
2022-12-03T18:35:45.206Z,19.2
2022-12-03T18:40:40.351Z,19.3
2022-12-03T18:45:35.304Z,19.5
2022-12-03T18:50:30.446Z,19.7
2022-12-03T18:55:25.656Z,19.9
2022-12-03T19:00:20.441Z,20.3
2022-12-03T19:05:15.425Z,20.5
2022-12-03T19:10:10.351Z,20.7
2022-12-03T19:15:05.257Z,20.8
2022-12-03T19:20:00.079Z,20.7
2022-12-03T19:24:54.864Z,20.8
2022-12-03T19:29:49.022Z,21
2022-12-03T19:34:43.216Z,21
2022-12-03T19:39:37.963Z,20.9
2022-12-03T19:44:32.698Z,20.8
2022-12-03T19:49:27.232Z,20.7
2022-12-03T19:54:21.835Z,20.6
2022-12-03T19:59:16.440Z,20.5
2022-12-03T20:04:11.011Z,20.4
2022-12-03T20:09:05.816Z,20.4
2022-12-03T20:14:00.826Z,20.2
2022-12-03T20:18:55.395Z,20.1
2022-12-03T20:23:50.215Z,20.1
2022-12-03T20:28:45.158Z,20
2022-12-03T20:33:39.903Z,19.8
2022-12-03T20:38:34.594Z,19.7
2022-12-03T20:43:29.112Z,19.7
2022-12-03T20:48:23.916Z,19.7
2022-12-03T20:53:24.557Z,19.7
2022-12-03T20:58:13.068Z,19.6
2022-12-03T21:03:07.862Z,19.5
2022-12-03T21:08:02.765Z,19.4
2022-12-03T21:12:57.344Z,19.4
2022-12-03T21:17:51.860Z,19.3
2022-12-03T21:22:46.469Z,19.2
2022-12-03T21:27:40.912Z,19.1
2022-12-03T21:32:35.608Z,19.1
2022-12-03T21:37:30.239Z,19
2022-12-03T21:42:35.210Z,19
2022-12-03T21:47:19.600Z,18.9
2022-12-03T21:52:13.640Z,18.8
2022-12-03T21:57:08.735Z,18.8
2022-12-03T22:02:03.722Z,18.7
2022-12-03T22:06:57.448Z,18.7
2022-12-03T22:11:52.122Z,18.6
2022-12-03T22:16:46.773Z,18.5
2022-12-03T22:21:41.541Z,18.5
2022-12-03T22:26:36.214Z,18.5
2022-12-03T22:31:31.068Z,18.4
2022-12-03T22:36:25.842Z,18.4
2022-12-03T22:41:20.605Z,18.1
2022-12-03T22:46:15.229Z,17.9
2022-12-03T22:51:09.808Z,17.7
2022-12-03T22:56:04.222Z,17.7
2022-12-03T23:01:02.818Z,17.8
2022-12-03T23:05:53.070Z,17.6
2022-12-03T23:10:47.815Z,17.6
2022-12-03T23:15:42.553Z,17.5
2022-12-03T23:20:37.415Z,17.5
2022-12-03T23:25:31.581Z,17.6
2022-12-03T23:30:25.517Z,17.6
2022-12-03T23:35:20.145Z,17.5
2022-12-03T23:40:14.792Z,17.5
2022-12-03T23:45:09.322Z,17.4
2022-12-03T23:50:04.340Z,17.4
2022-12-03T23:54:59.138Z,17.4
2022-12-03T23:59:54.222Z,17.4
